createdAt,value
2022-09-06T00:01:13.237Z,99.90
2022-09-06T00:03:40.875Z,99.90
2022-09-06T00:06:12.997Z,99.90
2022-09-06T00:08:40.346Z,99.90
2022-09-06T00:11:08.459Z,99.90
2022-09-06T00:13:36.480Z,99.90
2022-09-06T00:16:15.534Z,99.90
2022-09-06T00:18:43.742Z,99.90
2022-09-06T00:21:20.394Z,99.90
2022-09-06T00:23:48.142Z,99.90
2022-09-06T00:26:15.481Z,99.90
2022-09-06T00:28:42.824Z,99.90
2022-09-06T00:31:17.891Z,99.90
2022-09-06T00:33:45.232Z,99.90
2022-09-06T00:36:13.172Z,99.90
2022-09-06T00:38:40.788Z,99.90
2022-09-06T00:41:09.891Z,99.90
2022-09-06T00:43:38.070Z,99.90
2022-09-06T00:46:07.617Z,99.90
2022-09-06T00:48:36.852Z,99.90
2022-09-06T00:51:07.360Z,99.90
2022-09-06T00:53:34.469Z,99.90
2022-09-06T00:56:01.669Z,99.90
2022-09-06T00:58:29.048Z,99.90
2022-09-06T01:00:56.174Z,99.90
2022-09-06T01:03:25.498Z,99.90
2022-09-06T01:06:05.627Z,99.90
2022-09-06T01:09:03.652Z,99.90
2022-09-06T01:11:41.132Z,99.90
2022-09-06T01:14:21.552Z,99.90
2022-09-06T01:17:34.852Z,99.90
2022-09-06T01:20:22.549Z,99.90
2022-09-06T01:23:07.499Z,99.90
2022-09-06T01:25:46.426Z,99.90
2022-09-06T01:28:39.813Z,99.90
2022-09-06T01:31:28.037Z,99.90
2022-09-06T01:34:05.191Z,99.90
2022-09-06T01:37:08.982Z,99.90
2022-09-06T01:39:39.318Z,99.90
2022-09-06T01:42:11.475Z,99.90
2022-09-06T01:44:42.559Z,99.90
2022-09-06T01:47:35.626Z,99.90
2022-09-06T01:50:44.481Z,99.90
2022-09-06T01:53:33.586Z,99.90
2022-09-06T01:56:31.785Z,99.90
2022-09-06T01:59:13.568Z,99.90
2022-09-06T02:01:59.552Z,99.90
2022-09-06T02:04:39.908Z,99.90
2022-09-06T02:07:24.898Z,99.90
2022-09-06T02:09:56.863Z,99.90
2022-09-06T02:12:26.966Z,99.90
2022-09-06T02:15:02.738Z,99.90
2022-09-06T02:17:41.608Z,99.90
2022-09-06T02:20:09.062Z,99.90
2022-09-06T02:22:41.735Z,99.90
2022-09-06T02:25:11.967Z,99.90
2022-09-06T02:27:39.235Z,99.90
2022-09-06T02:30:06.803Z,99.90
2022-09-06T02:32:41.115Z,99.90
2022-09-06T02:35:12.919Z,99.90
2022-09-06T02:37:41.005Z,99.90
2022-09-06T02:40:09.687Z,99.90
2022-09-06T02:42:40.351Z,99.90
2022-09-06T02:45:08.319Z,99.90
2022-09-06T02:47:35.514Z,99.90
2022-09-06T02:50:02.852Z,99.90
2022-09-06T02:52:30.698Z,99.90
2022-09-06T02:54:58.012Z,99.90
2022-09-06T02:57:25.468Z,99.90
2022-09-06T02:59:52.431Z,99.90
2022-09-06T03:02:20.010Z,99.90
2022-09-06T03:04:47.427Z,99.90
2022-09-06T03:07:14.760Z,99.90
2022-09-06T03:09:41.758Z,99.90
2022-09-06T03:12:08.753Z,99.90
2022-09-06T03:14:36.672Z,99.90
2022-09-06T03:17:04.537Z,99.90
2022-09-06T03:19:31.747Z,99.90
2022-09-06T03:21:59.387Z,99.90
2022-09-06T03:24:26.387Z,99.90
2022-09-06T03:26:53.389Z,99.90
2022-09-06T03:29:20.388Z,99.90
2022-09-06T03:31:47.592Z,99.90
2022-09-06T03:34:14.541Z,99.90
2022-09-06T03:36:42.137Z,99.90
2022-09-06T03:39:09.854Z,99.90
2022-09-06T03:41:38.717Z,99.90
2022-09-06T03:44:06.563Z,99.90
2022-09-06T03:46:33.807Z,99.90
2022-09-06T03:49:02.041Z,99.90
2022-09-06T03:51:29.439Z,99.90
2022-09-06T03:53:57.732Z,99.90
2022-09-06T03:56:24.734Z,99.90
2022-09-06T03:58:51.750Z,99.90
2022-09-06T04:01:18.732Z,99.90
2022-09-06T04:03:46.985Z,99.90
2022-09-06T04:06:14.350Z,99.90
2022-09-06T04:08:41.415Z,99.90
2022-09-06T04:11:08.503Z,99.90
2022-09-06T04:13:36.399Z,99.90
2022-09-06T04:16:05.749Z,99.90
2022-09-06T04:18:33.069Z,99.90
2022-09-06T04:21:02.029Z,99.90
2022-09-06T04:23:30.050Z,99.90
2022-09-06T04:26:00.068Z,99.90
2022-09-06T04:28:27.719Z,99.90
2022-09-06T04:31:04.062Z,99.90
2022-09-06T04:33:33.296Z,99.90
2022-09-06T04:36:02.822Z,99.90
2022-09-06T04:38:31.447Z,99.90
2022-09-06T04:40:58.512Z,99.90
2022-09-06T04:43:25.681Z,99.90
2022-09-06T04:45:52.755Z,99.90
2022-09-06T04:48:19.953Z,99.90
2022-09-06T04:50:47.281Z,99.90
2022-09-06T04:53:14.241Z,99.90
2022-09-06T04:55:41.400Z,99.90
2022-09-06T04:58:08.374Z,99.90
2022-09-06T05:00:36.054Z,99.90
2022-09-06T05:03:03.111Z,99.90
2022-09-06T05:05:30.631Z,99.90
2022-09-06T05:07:57.602Z,99.90
2022-09-06T05:10:26.484Z,99.90
2022-09-06T05:12:54.558Z,99.90
2022-09-06T05:15:26.308Z,99.90
2022-09-06T05:17:53.447Z,99.90
2022-09-06T05:20:20.515Z,99.90
2022-09-06T05:22:56.587Z,99.90
2022-09-06T05:25:23.625Z,99.90
2022-09-06T05:27:50.720Z,99.90
2022-09-06T05:30:18.530Z,99.90
2022-09-06T05:32:55.252Z,99.90
2022-09-06T05:35:22.206Z,99.90
2022-09-06T05:37:49.267Z,99.90
2022-09-06T05:40:17.408Z,99.90
2022-09-06T05:42:44.447Z,99.90
2022-09-06T05:45:11.725Z,99.90
2022-09-06T05:47:39.098Z,99.90
2022-09-06T05:50:07.481Z,99.90
2022-09-06T05:52:35.943Z,99.90
2022-09-06T05:55:04.444Z,99.90
2022-09-06T05:57:31.749Z,99.90
2022-09-06T05:59:58.850Z,99.90
2022-09-06T06:02:26.067Z,99.90
2022-09-06T06:04:54.566Z,99.90
2022-09-06T06:07:24.058Z,99.90
2022-09-06T06:09:51.331Z,99.90
2022-09-06T06:12:18.387Z,99.90
2022-09-06T06:14:45.413Z,99.90
2022-09-06T06:17:14.978Z,99.90
2022-09-06T06:19:42.403Z,99.90
2022-09-06T06:22:09.642Z,99.90
2022-09-06T06:24:38.845Z,99.90
2022-09-06T06:27:06.298Z,99.90
2022-09-06T06:29:33.737Z,99.90
2022-09-06T06:32:02.134Z,99.90
2022-09-06T06:34:29.217Z,99.90
2022-09-06T06:36:56.338Z,99.90
2022-09-06T06:39:23.915Z,99.90
2022-09-06T06:41:51.035Z,99.90
2022-09-06T06:44:41.098Z,99.90
2022-09-06T06:47:08.691Z,99.90
2022-09-06T06:49:35.913Z,99.90
2022-09-06T06:52:03.171Z,99.90
2022-09-06T06:54:30.253Z,99.90
2022-09-06T06:56:57.156Z,99.90
2022-09-06T06:59:24.141Z,99.90
2022-09-06T07:01:51.239Z,99.90
2022-09-06T07:04:18.355Z,99.90
2022-09-06T07:12:24.135Z,99.90
2022-09-06T07:14:51.462Z,99.90
2022-09-06T07:17:18.718Z,99.90
2022-09-06T07:22:33.528Z,99.90
2022-09-06T07:25:01.170Z,99.90
2022-09-06T07:30:16.213Z,99.90
2022-09-06T07:32:43.393Z,99.90
2022-09-06T07:35:13.201Z,99.90
2022-09-06T07:37:40.940Z,99.90
2022-09-06T07:40:08.930Z,99.90
2022-09-06T07:42:36.807Z,99.90
2022-09-06T07:45:05.181Z,99.90
2022-09-06T07:53:10.782Z,99.90
2022-09-06T07:55:43.782Z,99.90
2022-09-06T07:58:11.191Z,99.90
2022-09-06T08:00:41.336Z,99.90
2022-09-06T08:03:08.840Z,99.90
2022-09-06T08:11:16.708Z,99.90
2022-09-06T08:13:44.060Z,99.90
2022-09-06T08:16:12.807Z,99.90
2022-09-06T08:18:40.605Z,99.90
2022-09-06T08:21:13.044Z,99.90
2022-09-06T08:23:51.481Z,99.90
2022-09-06T08:26:21.012Z,99.90
2022-09-06T08:28:48.094Z,99.90
2022-09-06T08:31:17.509Z,99.90
2022-09-06T08:33:44.844Z,99.90
2022-09-06T08:36:11.898Z,99.90
2022-09-06T08:38:39.490Z,99.90
2022-09-06T08:41:24.381Z,99.90
2022-09-06T08:47:01.471Z,99.90
2022-09-06T08:49:34.099Z,99.90
2022-09-06T08:52:19.470Z,99.90
2022-09-06T08:54:58.695Z,99.90
2022-09-06T08:57:31.394Z,99.90
2022-09-06T09:00:02.522Z,99.90
2022-09-06T09:03:16.859Z,99.90
2022-09-06T09:05:50.230Z,99.90
2022-09-06T09:08:56.576Z,99.90
2022-09-06T09:11:25.636Z,99.90
2022-09-06T09:13:57.143Z,99.90
2022-09-06T09:16:25.778Z,99.90
2022-09-06T09:18:59.460Z,99.90
2022-09-06T09:21:30.731Z,99.90
2022-09-06T09:24:03.340Z,99.90
2022-09-06T09:26:36.980Z,99.90
2022-09-06T09:29:12.943Z,99.90
2022-09-06T09:31:53.540Z,99.90
2022-09-06T09:34:37.221Z,99.90
2022-09-06T09:37:53.249Z,99.90
2022-09-06T09:40:49.211Z,99.90
2022-09-06T09:43:28.064Z,99.90
2022-09-06T09:46:16.361Z,99.90
2022-09-06T09:49:13.383Z,99.90
2022-09-06T09:52:09.574Z,99.90
2022-09-06T09:54:40.659Z,99.90
2022-09-06T09:57:12.093Z,99.90
2022-09-06T09:59:50.162Z,99.90
2022-09-06T10:02:26.068Z,99.90
2022-09-06T10:05:25.920Z,99.90
2022-09-06T10:07:58.492Z,99.90
2022-09-06T10:10:38.982Z,99.90
2022-09-06T10:16:14.737Z,99.90
2022-09-06T10:18:45.969Z,99.90
2022-09-06T10:21:16.075Z,99.90
2022-09-06T10:24:31.700Z,99.90
2022-09-06T10:27:03.173Z,99.90
2022-09-06T10:29:46.457Z,99.90
2022-09-06T10:32:39.535Z,99.90
2022-09-06T10:35:23.995Z,99.90
2022-09-06T10:38:20.451Z,99.90
2022-09-06T10:41:11.651Z,99.90
2022-09-06T10:43:55.279Z,99.90
2022-09-06T10:46:26.613Z,99.90
2022-09-06T10:48:54.278Z,99.90
2022-09-06T10:51:31.893Z,99.90
2022-09-06T10:54:07.118Z,99.90
2022-09-06T10:56:46.617Z,99.90
2022-09-06T11:02:30.261Z,99.90
2022-09-06T11:10:51.792Z,99.90
2022-09-06T11:13:21.031Z,99.90
2022-09-06T11:16:11.330Z,99.90
2022-09-06T11:19:03.741Z,99.90
2022-09-06T11:22:17.550Z,99.90
2022-09-06T11:25:05.488Z,99.90
2022-09-06T11:27:38.783Z,99.90
2022-09-06T11:30:08.317Z,99.90
2022-09-06T11:32:48.683Z,99.90
2022-09-06T11:35:32.279Z,99.90
2022-09-06T11:38:26.550Z,99.90
2022-09-06T11:41:07.237Z,99.90
2022-09-06T11:43:45.143Z,99.90
2022-09-06T11:46:34.816Z,99.90
2022-09-06T11:49:16.569Z,99.90
2022-09-06T11:51:50.145Z,99.90
2022-09-06T11:54:26.905Z,99.90
2022-09-06T11:57:10.103Z,99.90
2022-09-06T11:59:44.337Z,99.90
2022-09-06T12:02:29.846Z,99.90
2022-09-06T12:05:00.730Z,99.90
2022-09-06T12:07:30.735Z,99.90
2022-09-06T12:10:02.024Z,99.90
2022-09-06T12:12:52.619Z,99.80
2022-09-06T12:15:31.918Z,99.60
2022-09-06T12:18:00.667Z,99.90
2022-09-06T12:20:49.044Z,99.80
2022-09-06T12:23:44.644Z,98.10
2022-09-06T12:26:13.399Z,98.00
2022-09-06T12:28:49.859Z,98.30
2022-09-06T12:31:36.556Z,99.50
2022-09-06T12:34:27.618Z,98.20
2022-09-06T12:36:59.309Z,96.80
2022-09-06T12:39:27.120Z,97.30
2022-09-06T12:42:23.694Z,95.70
2022-09-06T12:44:54.267Z,95.30
2022-09-06T12:47:31.518Z,95.00
2022-09-06T12:50:21.168Z,96.10
2022-09-06T12:53:24.693Z,96.20
2022-09-06T12:56:06.700Z,95.90
2022-09-06T12:58:34.512Z,97.00
2022-09-06T13:01:14.998Z,96.00
2022-09-06T13:03:53.961Z,96.20
2022-09-06T13:06:27.183Z,96.00
2022-09-06T13:08:59.688Z,95.30
2022-09-06T13:11:34.588Z,96.30
2022-09-06T13:14:13.855Z,95.90
2022-09-06T13:16:47.481Z,96.80
2022-09-06T13:19:39.512Z,96.00
2022-09-06T13:22:12.429Z,93.30
2022-09-06T13:24:46.907Z,92.60
2022-09-06T13:27:30.400Z,92.40
2022-09-06T13:30:09.313Z,94.00
2022-09-06T13:32:46.404Z,92.70
2022-09-06T13:35:23.947Z,91.70
2022-09-06T13:37:53.133Z,91.70
2022-09-06T13:41:09.322Z,93.10
2022-09-06T13:43:33.424Z,92.80
2022-09-06T13:46:09.143Z,91.60
2022-09-06T13:48:36.817Z,90.20
2022-09-06T13:51:06.799Z,89.80
2022-09-06T13:53:35.128Z,90.60
2022-09-06T13:56:02.425Z,89.40
2022-09-06T13:58:29.909Z,90.90
2022-09-06T14:00:58.485Z,92.10
2022-09-06T14:03:33.039Z,91.70
2022-09-06T14:06:01.136Z,88.00
2022-09-06T14:08:43.385Z,89.40
2022-09-06T14:11:16.316Z,87.60
2022-09-06T14:13:43.664Z,90.00
2022-09-06T14:16:11.161Z,86.80
2022-09-06T14:18:38.461Z,88.40
2022-09-06T14:21:05.546Z,89.40
2022-09-06T14:23:32.571Z,90.80
2022-09-06T14:26:02.423Z,90.90
2022-09-06T14:28:34.153Z,91.00
2022-09-06T14:31:15.760Z,90.30
2022-09-06T14:33:43.270Z,90.90
2022-09-06T14:36:15.330Z,91.00
2022-09-06T14:38:43.013Z,86.60
2022-09-06T14:41:12.095Z,89.00
2022-09-06T14:43:40.479Z,84.40
2022-09-06T14:46:13.821Z,87.30
2022-09-06T14:48:42.678Z,88.60
2022-09-06T14:51:22.340Z,86.00
2022-09-06T14:53:55.695Z,89.20
2022-09-06T14:56:33.497Z,83.30
2022-09-06T14:59:02.477Z,83.50
2022-09-06T15:01:35.716Z,83.90
2022-09-06T15:04:08.099Z,83.30
2022-09-06T15:06:37.033Z,83.10
2022-09-06T15:09:05.393Z,80.90
2022-09-06T15:11:38.513Z,83.20
2022-09-06T15:14:09.000Z,82.80
2022-09-06T15:16:36.295Z,81.70
2022-09-06T15:19:03.733Z,85.20
2022-09-06T15:21:32.339Z,83.20
2022-09-06T15:24:02.123Z,80.60
2022-09-06T15:26:30.252Z,84.20
2022-09-06T15:28:57.385Z,83.40
2022-09-06T15:31:24.909Z,83.20
2022-09-06T15:33:53.928Z,82.10
2022-09-06T15:36:21.972Z,83.10
2022-09-06T15:38:50.356Z,84.90
2022-09-06T15:41:23.563Z,85.40
2022-09-06T15:43:53.964Z,85.30
2022-09-06T15:46:44.079Z,86.10
2022-09-06T15:49:18.527Z,84.30
2022-09-06T15:51:47.775Z,84.40
2022-09-06T15:54:17.841Z,85.90
2022-09-06T15:56:45.345Z,82.40
2022-09-06T15:59:12.981Z,83.60
2022-09-06T16:01:40.953Z,84.90
2022-09-06T16:04:08.078Z,85.10
2022-09-06T16:06:42.155Z,84.50
2022-09-06T16:09:17.678Z,84.80
2022-09-06T16:11:44.817Z,86.60
2022-09-06T16:14:14.352Z,87.70
2022-09-06T16:16:43.464Z,88.20
2022-09-06T16:19:13.244Z,89.00
2022-09-06T16:21:42.207Z,89.60
2022-09-06T16:24:12.404Z,88.00
2022-09-06T16:26:44.620Z,88.00
2022-09-06T16:29:14.043Z,89.40
2022-09-06T16:31:41.553Z,89.40
2022-09-06T16:34:10.471Z,89.90
2022-09-06T16:36:39.467Z,88.90
2022-09-06T16:39:07.467Z,89.40
2022-09-06T16:41:42.698Z,89.70
2022-09-06T16:44:16.594Z,89.80
2022-09-06T16:46:48.359Z,88.70
2022-09-06T16:49:17.487Z,88.30
2022-09-06T16:51:45.834Z,89.10
2022-09-06T16:54:14.364Z,89.00
2022-09-06T16:56:41.859Z,89.70
2022-09-06T16:59:10.662Z,89.70
2022-09-06T17:01:41.582Z,90.00
2022-09-06T17:04:09.623Z,90.10
2022-09-06T17:06:44.165Z,90.10
2022-09-06T17:09:13.858Z,90.20
2022-09-06T17:11:40.960Z,90.40
2022-09-06T17:14:08.414Z,90.70
2022-09-06T17:16:54.271Z,90.80
2022-09-06T17:19:21.536Z,90.80
2022-09-06T17:21:48.993Z,90.90
2022-09-06T17:24:16.651Z,91.10
2022-09-06T17:26:43.737Z,91.30
2022-09-06T17:29:11.130Z,91.60
2022-09-06T17:31:39.117Z,92.00
2022-09-06T17:34:07.821Z,92.10
2022-09-06T17:36:36.504Z,92.40
2022-09-06T17:39:15.367Z,92.60
2022-09-06T17:41:47.971Z,92.80
2022-09-06T17:44:19.802Z,93.60
2022-09-06T17:47:09.211Z,94.70
2022-09-06T17:49:34.295Z,94.90
2022-09-06T17:52:01.468Z,95.00
2022-09-06T17:54:29.808Z,94.50
2022-09-06T17:56:57.101Z,94.10
2022-09-06T17:59:24.251Z,93.70
2022-09-06T18:01:52.434Z,94.00
2022-09-06T18:04:24.480Z,94.30
2022-09-06T18:06:51.524Z,94.20
2022-09-06T18:09:21.627Z,94.30
2022-09-06T18:11:49.104Z,94.30
2022-09-06T18:14:18.165Z,94.80
2022-09-06T18:16:49.107Z,95.00
2022-09-06T18:19:17.623Z,95.30
2022-09-06T18:21:45.387Z,95.30
2022-09-06T18:24:15.719Z,95.10
2022-09-06T18:26:43.324Z,94.90
2022-09-06T18:29:17.029Z,94.90
2022-09-06T18:31:45.011Z,95.00
2022-09-06T18:34:15.055Z,95.00
2022-09-06T18:36:42.444Z,95.20
2022-09-06T18:39:11.317Z,95.30
2022-09-06T18:42:01.392Z,95.20
2022-09-06T18:44:34.630Z,95.40
2022-09-06T18:47:03.297Z,95.10
2022-09-06T18:49:31.980Z,95.10
2022-09-06T18:52:06.389Z,95.00
2022-09-06T18:54:33.519Z,95.00
2022-09-06T18:57:00.970Z,94.90
2022-09-06T18:59:28.120Z,94.70
2022-09-06T19:01:55.502Z,94.70
2022-09-06T19:04:22.758Z,94.70
2022-09-06T19:06:49.622Z,94.50
2022-09-06T19:09:17.788Z,94.30
2022-09-06T19:11:47.835Z,94.20
2022-09-06T19:14:15.267Z,94.30
2022-09-06T19:16:45.405Z,94.00
2022-09-06T19:19:13.899Z,94.10
2022-09-06T19:21:42.479Z,94.40
2022-09-06T19:24:11.954Z,94.50
2022-09-06T19:26:42.681Z,94.60
2022-09-06T19:29:16.253Z,94.60
2022-09-06T19:31:44.708Z,94.60
2022-09-06T19:34:14.641Z,94.30
2022-09-06T19:36:43.287Z,94.30
2022-09-06T19:39:14.851Z,94.60
2022-09-06T19:41:47.442Z,94.50
2022-09-06T19:44:18.567Z,94.40
2022-09-06T19:46:47.610Z,94.60
2022-09-06T19:49:16.916Z,94.40
2022-09-06T19:51:46.467Z,94.40
2022-09-06T19:54:16.154Z,94.50
2022-09-06T19:56:44.204Z,94.30
2022-09-06T19:59:12.997Z,94.30
2022-09-06T20:01:42.095Z,94.30
2022-09-06T20:04:11.441Z,94.40
2022-09-06T20:06:41.639Z,94.40
2022-09-06T20:09:12.848Z,94.20
2022-09-06T20:11:41.680Z,94.30
2022-09-06T20:14:10.402Z,94.10
2022-09-06T20:16:41.359Z,94.30
2022-09-06T20:19:10.765Z,94.30
2022-09-06T20:21:38.091Z,94.30
2022-09-06T20:24:05.300Z,94.20
2022-09-06T20:26:32.315Z,94.10
2022-09-06T20:29:02.737Z,94.20
2022-09-06T20:31:32.257Z,94.30
2022-09-06T20:34:01.921Z,94.40
2022-09-06T20:36:30.238Z,94.30
2022-09-06T20:38:57.929Z,94.50
2022-09-06T20:41:26.694Z,94.60
2022-09-06T20:43:59.130Z,94.50
2022-09-06T20:46:30.021Z,94.60
2022-09-06T20:48:59.887Z,94.80
2022-09-06T20:51:27.253Z,94.80
2022-09-06T20:53:57.194Z,95.00
2022-09-06T20:56:33.924Z,95.10
2022-09-06T20:59:03.639Z,95.50
2022-09-06T21:01:34.624Z,95.60
2022-09-06T21:04:04.714Z,95.80
2022-09-06T21:06:36.835Z,95.80
2022-09-06T21:09:04.908Z,95.90
2022-09-06T21:11:31.928Z,96.10
2022-09-06T21:13:59.426Z,96.50
2022-09-06T21:16:29.199Z,96.90
2022-09-06T21:19:04.309Z,97.20
2022-09-06T21:21:35.681Z,97.70
2022-09-06T21:24:04.913Z,98.60
2022-09-06T21:26:32.413Z,99.40
2022-09-06T21:28:59.674Z,99.90
2022-09-06T21:31:29.763Z,99.90
2022-09-06T21:34:01.594Z,99.90
2022-09-06T21:36:32.230Z,99.90
2022-09-06T21:39:02.827Z,99.90
2022-09-06T21:41:31.314Z,99.90
2022-09-06T21:44:00.938Z,99.90
2022-09-06T21:46:34.133Z,99.90
2022-09-06T21:49:07.503Z,99.90
2022-09-06T21:51:35.006Z,99.90
2022-09-06T21:54:06.082Z,99.90
2022-09-06T21:56:35.030Z,99.90
2022-09-06T21:59:04.521Z,99.90
2022-09-06T22:01:34.404Z,99.90
2022-09-06T22:04:02.288Z,99.90
2022-09-06T22:06:31.709Z,99.90
2022-09-06T22:09:00.406Z,99.90
2022-09-06T22:11:32.258Z,99.90
2022-09-06T22:14:05.580Z,99.90
2022-09-06T22:16:37.013Z,99.90
2022-09-06T22:19:05.774Z,99.90
2022-09-06T22:21:33.695Z,99.90
2022-09-06T22:24:03.419Z,99.90
2022-09-06T22:26:32.229Z,99.90
2022-09-06T22:29:02.344Z,99.90
2022-09-06T22:31:31.320Z,99.90
2022-09-06T22:34:00.024Z,99.90
2022-09-06T22:36:27.736Z,99.90
2022-09-06T22:38:58.688Z,99.90
2022-09-06T22:41:27.250Z,99.90
2022-09-06T22:43:54.930Z,99.90
2022-09-06T22:46:22.759Z,99.90
2022-09-06T22:48:49.896Z,99.90
2022-09-06T22:51:16.941Z,99.90
2022-09-06T22:53:44.097Z,99.90
2022-09-06T22:56:11.253Z,99.90
2022-09-06T22:58:38.513Z,99.90
2022-09-06T23:01:11.151Z,99.90
2022-09-06T23:03:38.808Z,99.90
2022-09-06T23:06:06.074Z,99.90
2022-09-06T23:08:35.494Z,99.90
2022-09-06T23:11:08.297Z,99.90
2022-09-06T23:13:36.501Z,99.90
2022-09-06T23:16:09.343Z,99.90
2022-09-06T23:18:37.063Z,99.90
2022-09-06T23:21:12.830Z,99.90
2022-09-06T23:23:41.302Z,99.90
2022-09-06T23:26:14.031Z,99.90
2022-09-06T23:28:40.983Z,99.90
2022-09-06T23:31:10.655Z,99.90
2022-09-06T23:33:38.528Z,99.90
2022-09-06T23:36:07.436Z,99.90
2022-09-06T23:38:35.820Z,99.90
2022-09-06T23:41:04.244Z,99.90
2022-09-06T23:43:31.715Z,99.90
2022-09-06T23:45:59.190Z,99.90
2022-09-06T23:48:26.872Z,99.90
2022-09-06T23:50:54.481Z,99.90
2022-09-06T23:53:22.082Z,99.90
2022-09-06T23:55:49.144Z,99.90
2022-09-06T23:58:16.546Z,99.90
